Time;durP1;ratioP1;P1;durP2;ratioP2;P2;SDS_P1;SDS_P2;PMS_P1;PMS_P2;Temp;Humidity;BMP_temperature;BMP_pressure;BME280_temperature;BME280_humidity;BME280_pressure;Samples;Min_cycle;Max_cycle;Signal;HPM_P1;HPM_P2
2022/12/14 00:01:45;;;;;;;30.93;9.43;;;;;;;;;;5064078;27;87003;-55
2022/12/14 00:04:16;;;;;;;25.93;9.93;;;;;;;;;;5063677;27;90212;-56
2022/12/14 00:06:45;;;;;;;15.53;8.17;;;;;;;;;;5063729;27;90000;-55
2022/12/14 00:09:13;;;;;;;20.30;6.87;;;;;;;;;;5063957;27;87059;-55
2022/12/14 00:11:41;;;;;;;24.63;8.23;;;;;;;;;;5053365;27;87051;-55
2022/12/14 00:14:09;;;;;;;19.87;7.03;;;;;;;;;;5042695;27;87140;-55
2022/12/14 00:16:39;;;;;;;14.70;7.30;;;;;;;;;;5042281;27;88283;-55
2022/12/14 00:19:07;;;;;;;13.93;6.23;;;;;;;;;;5042581;27;87040;-56
2022/12/14 00:21:36;;;;;;;13.60;6.30;;;;;;;;;;5055485;27;86231;-55
2022/12/14 00:24:04;;;;;;;22.10;7.57;;;;;;;;;;5058048;27;89221;-55
2022/12/14 00:26:33;;;;;;;16.10;6.40;;;;;;;;;;5043177;27;88745;-55
2022/12/14 00:29:01;;;;;;;13.53;5.30;;;;;;;;;;5042782;27;87981;-55
2022/12/14 00:31:30;;;;;;;10.50;5.33;;;;;;;;;;5042854;27;87053;-55
2022/12/14 00:34:00;;;;;;;12.33;4.97;;;;;;;;;;5042432;28;89189;-55
2022/12/14 00:36:30;;;;;;;9.80;4.57;;;;;;;;;;5037675;27;89091;-55
2022/12/14 00:38:59;;;;;;;15.33;4.70;;;;;;;;;;5052979;27;87040;-55
2022/12/14 00:41:27;;;;;;;13.27;4.53;;;;;;;;;;5060728;27;86990;-55
2022/12/14 00:43:55;;;;;;;8.67;4.53;;;;;;;;;;5049118;27;87757;-56
2022/12/14 00:46:23;;;;;;;7.10;3.80;;;;;;;;;;5040989;27;89062;-55
2022/12/14 00:48:52;;;;;;;14.27;3.93;;;;;;;;;;5061643;27;86898;-54
2022/12/14 00:51:21;;;;;;;10.37;4.20;;;;;;;;;;5041856;28;87051;-55
2022/12/14 00:53:50;;;;;;;6.20;3.13;;;;;;;;;;5081096;27;90126;-55
2022/12/14 00:56:18;;;;;;;12.83;3.60;;;;;;;;;;5067616;27;88787;-55
2022/12/14 00:58:50;;;;;;;6.83;3.73;;;;;;;;;;5062498;27;87137;-55
2022/12/14 01:01:18;;;;;;;6.27;3.03;;;;;;;;;;5061074;27;87724;-55
2022/12/14 01:03:47;;;;;;;10.93;2.40;;;;;;;;;;5061152;27;89124;-55
2022/12/14 01:06:16;;;;;;;6.50;2.90;;;;;;;;;;5076461;27;89048;-55
2022/12/14 01:08:45;;;;;;;5.53;3.03;;;;;;;;;;5062784;27;87991;-54
2022/12/14 01:11:14;;;;;;;3.90;2.67;;;;;;;;;;5062785;27;86297;-55
2022/12/14 01:13:42;;;;;;;6.53;2.80;;;;;;;;;;5062396;27;87041;-55
2022/12/14 01:16:11;;;;;;;3.50;1.83;;;;;;;;;;5062858;27;88617;-55
2022/12/14 01:18:40;;;;;;;3.93;2.20;;;;;;;;;;5062108;27;88046;-56
2022/12/14 01:21:09;;;;;;;4.53;2.47;;;;;;;;;;5062277;27;87182;-55
2022/12/14 01:23:37;;;;;;;6.93;1.93;;;;;;;;;;5053829;27;89122;-55
2022/12/14 01:26:07;;;;;;;4.43;2.70;;;;;;;;;;5060322;27;88610;-55
2022/12/14 01:28:35;;;;;;;4.60;2.50;;;;;;;;;;5058590;27;87140;-55
2022/12/14 01:31:08;;;;;;;3.23;2.27;;;;;;;;;;5044419;27;87276;-55
2022/12/14 01:33:36;;;;;;;7.27;2.60;;;;;;;;;;5046116;27;89046;-55
2022/12/14 01:36:06;;;;;;;3.33;1.93;;;;;;;;;;5035852;28;88943;-55
2022/12/14 01:38:34;;;;;;;4.07;2.10;;;;;;;;;;5049923;27;87180;-55
2022/12/14 01:41:02;;;;;;;5.10;2.50;;;;;;;;;;5050304;27;87449;-55
2022/12/14 01:43:47;;;;;;;4.10;1.70;;;;;;;;;;5035357;28;90162;-55
2022/12/14 01:46:17;;;;;;;3.80;1.97;;;;;;;;;;5041804;27;88678;-55
2022/12/14 01:48:45;;;;;;;2.03;1.83;;;;;;;;;;5043848;27;87136;-55
2022/12/14 01:51:13;;;;;;;3.07;1.87;;;;;;;;;;5055464;27;87028;-55
2022/12/14 01:53:42;;;;;;;2.63;2.27;;;;;;;;;;5047774;27;89036;-55
2022/12/14 01:56:10;;;;;;;4.20;2.10;;;;;;;;;;5041188;27;87979;-55
2022/12/14 01:58:39;;;;;;;4.90;1.93;;;;;;;;;;5053876;27;87063;-55
2022/12/14 02:01:10;;;;;;;3.50;2.10;;;;;;;;;;5045800;27;86294;-55
2022/12/14 02:03:38;;;;;;;3.83;1.53;;;;;;;;;;5061444;27;88944;-55
2022/12/14 02:06:08;;;;;;;3.90;1.90;;;;;;;;;;5059501;27;88820;-55
2022/12/14 02:08:36;;;;;;;3.57;1.77;;;;;;;;;;5045161;27;87930;-54
2022/12/14 02:11:04;;;;;;;2.33;1.70;;;;;;;;;;5053765;27;87808;-54
2022/12/14 02:13:33;;;;;;;4.23;1.30;;;;;;;;;;5041060;27;89014;-55
2022/12/14 02:16:01;;;;;;;7.33;1.87;;;;;;;;;;5061070;27;88015;-55
2022/12/14 02:18:31;;;;;;;2.47;1.77;;;;;;;;;;5058158;27;87770;-55
2022/12/14 02:21:06;;;;;;;3.27;1.90;;;;;;;;;;5041126;27;87098;-55
2022/12/14 02:23:52;;;;;;;2.83;1.63;;;;;;;;;;5052101;27;88146;-54
2022/12/14 02:26:40;;;;;;;1.57;1.30;;;;;;;;;;5040527;27;88640;-56
2022/12/14 02:29:32;;;;;;;3.10;1.33;;;;;;;;;;5041044;28;87077;-55
2022/12/14 02:32:05;;;;;;;2.47;1.87;;;;;;;;;;5041291;28;87021;-55
2022/12/14 02:34:35;;;;;;;2.33;1.60;;;;;;;;;;5044868;27;90290;-55
2022/12/14 02:37:05;;;;;;;2.57;1.50;;;;;;;;;;5045934;27;89773;-55
2022/12/14 02:39:35;;;;;;;2.97;1.80;;;;;;;;;;5041276;27;87167;-55
2022/12/14 02:42:05;;;;;;;1.93;1.20;;;;;;;;;;5048451;27;88837;-55
2022/12/14 02:44:34;;;;;;;2.27;1.60;;;;;;;;;;5051612;27;88843;-55
2022/12/14 02:47:05;;;;;;;2.13;1.33;;;;;;;;;;5040895;27;87851;-55
2022/12/14 02:49:39;;;;;;;1.60;1.37;;;;;;;;;;5041101;27;87067;-55
2022/12/14 02:52:09;;;;;;;2.37;1.93;;;;;;;;;;5047633;27;86706;-55
2022/12/14 02:54:39;;;;;;;1.50;1.00;;;;;;;;;;5049913;27;88384;-55
2022/12/14 02:57:09;;;;;;;1.60;1.40;;;;;;;;;;5040215;27;88934;-55
2022/12/14 02:59:37;;;;;;;2.67;1.43;;;;;;;;;;5055279;27;88028;-55
2022/12/14 03:02:07;;;;;;;1.87;1.37;;;;;;;;;;5059437;27;87601;-55
2022/12/14 03:04:44;;;;;;;1.80;1.03;;;;;;;;;;5057369;27;89073;-55
2022/12/14 03:07:32;;;;;;;2.10;1.60;;;;;;;;;;5042154;27;87723;-55
2022/12/14 03:10:01;;;;;;;1.33;1.23;;;;;;;;;;5054926;27;86980;-55
2022/12/14 03:12:29;;;;;;;2.13;1.30;;;;;;;;;;5058581;27;87034;-55
2022/12/14 03:14:57;;;;;;;2.50;1.53;;;;;;;;;;5049351;27;88031;-55
2022/12/14 03:17:28;;;;;;;2.43;1.33;;;;;;;;;;5062687;27;87734;-55
2022/12/14 03:19:57;;;;;;;1.17;1.07;;;;;;;;;;5043885;27;87114;-55
2022/12/14 03:22:26;;;;;;;1.50;1.40;;;;;;;;;;5044457;27;87035;-55
2022/12/14 03:24:54;;;;;;;1.80;1.10;;;;;;;;;;5063372;27;89052;-55
2022/12/14 03:27:23;;;;;;;2.37;1.43;;;;;;;;;;5061963;27;89831;-55
2022/12/14 03:29:53;;;;;;;2.90;1.20;;;;;;;;;;5059663;27;87031;-55
2022/12/14 03:32:22;;;;;;;2.00;1.43;;;;;;;;;;5044069;27;87067;-55
2022/12/14 03:34:53;;;;;;;3.43;1.40;;;;;;;;;;5049660;27;87872;-55
2022/12/14 03:37:22;;;;;;;1.83;1.37;;;;;;;;;;5057621;27;87767;-55
2022/12/14 03:39:50;;;;;;;1.63;1.00;;;;;;;;;;5052966;27;87784;-56
2022/12/14 03:42:20;;;;;;;1.30;1.20;;;;;;;;;;5064097;27;86289;-56
2022/12/14 03:44:49;;;;;;;3.07;1.43;;;;;;;;;;5047280;27;91587;-56
2022/12/14 03:47:20;;;;;;;1.40;1.10;;;;;;;;;;5062896;27;88770;-55
2022/12/14 03:49:51;;;;;;;1.90;1.37;;;;;;;;;;5061862;27;88039;-55
2022/12/14 03:52:24;;;;;;;1.63;1.00;;;;;;;;;;5043303;28;87014;-55
2022/12/14 03:54:55;;;;;;;1.37;1.13;;;;;;;;;;5049881;27;87063;-55
2022/12/14 03:57:27;;;;;;;3.10;1.77;;;;;;;;;;5057366;27;87732;-55
2022/12/14 03:59:58;;;;;;;2.37;1.30;;;;;;;;;;5042999;27;87031;-55
2022/12/14 04:02:26;;;;;;;2.53;1.57;;;;;;;;;;5042991;27;87012;-55
2022/12/14 04:04:56;;;;;;;2.07;1.20;;;;;;;;;;5043263;27;88104;-54
2022/12/14 04:07:28;;;;;;;1.90;1.30;;;;;;;;;;5043947;27;87971;-55
2022/12/14 04:09:57;;;;;;;1.30;1.20;;;;;;;;;;5042993;28;87195;-55
2022/12/14 04:21:00;;;;;;;1.97;1.20;;;;;;;;;;5060724;27;87161;-55
2022/12/14 04:26:17;;;;;;;1.30;1.20;;;;;;;;;;5063561;27;87127;-55
2022/12/14 04:31:32;;;;;;;1.23;1.00;;;;;;;;;;5061016;27;87065;-54
2022/12/14 04:34:01;;;;;;;0.90;0.90;;;;;;;;;;5045352;27;86418;-55
2022/12/14 04:36:30;;;;;;;1.97;1.40;;;;;;;;;;5062514;27;88174;-55
2022/12/14 04:39:01;;;;;;;1.20;0.90;;;;;;;;;;5041451;27;87548;-55
2022/12/14 04:41:29;;;;;;;1.23;1.13;;;;;;;;;;5053290;27;88053;-55
2022/12/14 04:43:58;;;;;;;1.20;1.00;;;;;;;;;;5063024;27;87047;-55
2022/12/14 04:46:27;;;;;;;2.33;1.40;;;;;;;;;;5062781;27;88456;-55
2022/12/14 04:48:56;;;;;;;1.90;1.17;;;;;;;;;;5062535;27;89228;-55
2022/12/14 04:51:25;;;;;;;1.57;1.20;;;;;;;;;;5063129;27;87038;-55
2022/12/14 04:53:54;;;;;;;0.70;0.67;;;;;;;;;;5062431;27;87295;-56
2022/12/14 04:56:24;;;;;;;2.33;2.00;;;;;;;;;;5051591;27;88290;-55
2022/12/14 04:58:52;;;;;;;0.97;0.73;;;;;;;;;;5062494;27;86631;-55
2022/12/14 05:01:23;;;;;;;1.10;1.00;;;;;;;;;;5044819;27;87057;-55
2022/12/14 05:03:54;;;;;;;1.53;1.10;;;;;;;;;;5042373;27;87067;-55
2022/12/14 05:06:24;;;;;;;2.90;1.23;;;;;;;;;;5041643;27;90136;-55
2022/12/14 05:09:02;;;;;;;1.57;1.00;;;;;;;;;;5041907;27;89896;-55
2022/12/14 05:11:34;;;;;;;2.10;1.30;;;;;;;;;;5059192;27;87050;-55
2022/12/14 05:14:22;;;;;;;1.40;1.07;;;;;;;;;;5062445;27;87169;-55
2022/12/14 05:16:50;;;;;;;1.30;1.20;;;;;;;;;;5052380;27;87017;-55
2022/12/14 05:19:25;;;;;;;2.77;1.57;;;;;;;;;;5041084;27;88907;-55
2022/12/14 05:21:54;;;;;;;2.37;1.37;;;;;;;;;;5040849;27;87144;-55
2022/12/14 05:24:22;;;;;;;2.63;1.60;;;;;;;;;;5040797;27;86299;-55
2022/12/14 05:26:52;;;;;;;2.67;1.83;;;;;;;;;;5041228;27;89216;-55
2022/12/14 05:29:20;;;;;;;2.63;1.80;;;;;;;;;;5050919;27;87510;-55
2022/12/14 05:31:48;;;;;;;2.23;1.70;;;;;;;;;;5061535;27;88097;-55
2022/12/14 05:34:17;;;;;;;4.10;1.67;;;;;;;;;;5049546;27;87063;-55
2022/12/14 05:36:45;;;;;;;2.07;1.73;;;;;;;;;;5042019;27;89088;-55
2022/12/14 05:39:14;;;;;;;1.83;1.27;;;;;;;;;;5049223;27;88883;-55
2022/12/14 05:41:42;;;;;;;1.93;1.60;;;;;;;;;;5061965;27;87066;-55
2022/12/14 05:44:12;;;;;;;1.80;1.70;;;;;;;;;;5060209;27;87478;-55
2022/12/14 05:46:40;;;;;;;2.67;1.73;;;;;;;;;;5043266;27;88296;-55
2022/12/14 05:49:08;;;;;;;3.30;2.03;;;;;;;;;;5057384;27;88080;-55
2022/12/14 05:51:37;;;;;;;1.63;1.50;;;;;;;;;;5042257;27;87103;-55
2022/12/14 05:54:05;;;;;;;2.83;2.07;;;;;;;;;;5041925;27;87034;-55
2022/12/14 05:56:33;;;;;;;3.33;2.10;;;;;;;;;;5051291;27;89884;-55
2022/12/14 05:59:02;;;;;;;3.43;2.00;;;;;;;;;;5054984;27;90158;-55
2022/12/14 06:01:32;;;;;;;2.97;1.77;;;;;;;;;;5048934;27;87092;-55
2022/12/14 06:04:00;;;;;;;2.03;1.67;;;;;;;;;;5061802;27;87490;-55
2022/12/14 06:06:28;;;;;;;2.47;1.57;;;;;;;;;;5061404;27;89048;-55
2022/12/14 06:08:57;;;;;;;1.67;1.27;;;;;;;;;;5061288;27;89003;-54
2022/12/14 06:11:25;;;;;;;2.87;1.73;;;;;;;;;;5061613;27;87044;-55
2022/12/14 06:13:53;;;;;;;2.13;1.77;;;;;;;;;;5061265;27;86360;-55
2022/12/14 06:16:22;;;;;;;4.13;2.20;;;;;;;;;;5055253;27;89125;-55
2022/12/14 06:18:52;;;;;;;3.23;2.03;;;;;;;;;;5045928;27;87677;-56
2022/12/14 06:21:21;;;;;;;2.83;2.20;;;;;;;;;;5059750;27;88001;-55
2022/12/14 06:23:49;;;;;;;2.67;2.07;;;;;;;;;;5044984;27;87091;-55
2022/12/14 06:26:18;;;;;;;1.60;1.47;;;;;;;;;;5060663;27;88827;-55
2022/12/14 06:28:46;;;;;;;2.57;1.90;;;;;;;;;;5061498;27;87761;-55
2022/12/14 06:31:16;;;;;;;1.93;1.70;;;;;;;;;;5069647;27;87022;-55
2022/12/14 06:33:45;;;;;;;2.93;1.53;;;;;;;;;;5070513;27;87071;-54
2022/12/14 06:36:20;;;;;;;2.63;1.60;;;;;;;;;;5061058;27;89159;-55
2022/12/14 06:38:48;;;;;;;2.53;1.60;;;;;;;;;;5081362;27;87750;-56
2022/12/14 06:41:17;;;;;;;2.53;1.40;;;;;;;;;;5074794;27;86961;-55
2022/12/14 06:43:45;;;;;;;2.07;1.63;;;;;;;;;;5062021;27;87065;-55
2022/12/14 06:46:17;;;;;;;1.60;1.50;;;;;;;;;;5061700;27;90074;-55
2022/12/14 06:48:49;;;;;;;2.70;1.67;;;;;;;;;;5072626;27;89824;-54
2022/12/14 06:51:18;;;;;;;2.67;1.23;;;;;;;;;;5063967;27;87077;-56
2022/12/14 06:53:47;;;;;;;1.60;1.17;;;;;;;;;;5062217;27;87099;-55
2022/12/14 06:56:16;;;;;;;1.33;1.10;;;;;;;;;;5061144;27;88343;-55
2022/12/14 06:58:45;;;;;;;3.33;2.07;;;;;;;;;;5061881;27;87812;-55
2022/12/14 07:01:13;;;;;;;1.60;1.50;;;;;;;;;;5080683;27;87052;-56
2022/12/14 07:03:42;;;;;;;1.17;1.03;;;;;;;;;;5079683;27;86457;-55
2022/12/14 07:06:10;;;;;;;1.90;1.40;;;;;;;;;;5061891;27;88028;-55
2022/12/14 07:08:40;;;;;;;2.43;1.23;;;;;;;;;;5067791;27;88653;-56
2022/12/14 07:11:09;;;;;;;1.87;1.37;;;;;;;;;;5081162;27;88011;-55
2022/12/14 07:13:37;;;;;;;2.20;1.20;;;;;;;;;;5081060;27;87107;-55
2022/12/14 07:16:06;;;;;;;2.40;1.47;;;;;;;;;;5061638;27;88135;-54
2022/12/14 07:18:35;;;;;;;1.70;1.60;;;;;;;;;;5078227;27;87080;-56
2022/12/14 07:21:04;;;;;;;1.97;1.23;;;;;;;;;;5069780;27;87107;-56
2022/12/14 07:23:32;;;;;;;1.83;1.13;;;;;;;;;;5069948;27;87073;-56
2022/12/14 07:26:03;;;;;;;1.03;0.90;;;;;;;;;;5060605;27;88855;-55
2022/12/14 07:28:31;;;;;;;1.23;1.13;;;;;;;;;;5060860;27;87630;-55
2022/12/14 07:31:00;;;;;;;2.90;1.57;;;;;;;;;;5060402;27;87297;-55
2022/12/14 07:33:28;;;;;;;1.60;0.93;;;;;;;;;;5061271;27;87124;-55
2022/12/14 07:36:04;;;;;;;1.67;1.53;;;;;;;;;;5062414;27;89964;-57
2022/12/14 07:38:32;;;;;;;3.30;1.50;;;;;;;;;;5061232;27;88765;-55
2022/12/14 07:41:09;;;;;;;4.33;1.70;;;;;;;;;;5081015;27;87065;-55
2022/12/14 07:43:38;;;;;;;2.73;2.07;;;;;;;;;;5077176;27;87091;-55
2022/12/14 07:46:07;;;;;;;1.90;1.07;;;;;;;;;;5053478;27;88179;-55
2022/12/14 07:48:35;;;;;;;1.27;1.17;;;;;;;;;;5039992;27;88888;-55
2022/12/14 07:51:04;;;;;;;1.03;0.87;;;;;;;;;;5050664;27;87110;-55
2022/12/14 07:53:33;;;;;;;1.77;1.10;;;;;;;;;;5056943;27;86278;-55
2022/12/14 07:56:03;;;;;;;1.50;1.40;;;;;;;;;;5062075;27;89336;-55
2022/12/14 07:58:33;;;;;;;4.43;1.50;;;;;;;;;;5081150;27;88767;-55
2022/12/14 08:01:09;;;;;;;1.73;1.63;;;;;;;;;;5059785;27;87992;-55
2022/12/14 08:03:38;;;;;;;1.67;1.57;;;;;;;;;;5059468;27;87009;-54
2022/12/14 08:06:07;;;;;;;1.73;1.03;;;;;;;;;;5063292;27;88220;-55
2022/12/14 08:08:35;;;;;;;1.63;1.27;;;;;;;;;;5064080;27;87928;-55
2022/12/14 08:11:03;;;;;;;1.60;1.47;;;;;;;;;;5064474;27;87625;-55
2022/12/14 08:13:33;;;;;;;2.17;1.37;;;;;;;;;;5064023;27;87016;-54
2022/12/14 08:16:05;;;;;;;1.43;1.30;;;;;;;;;;5063188;27;88922;-56
2022/12/14 08:18:33;;;;;;;2.13;1.07;;;;;;;;;;5063535;27;89000;-55
2022/12/14 08:21:01;;;;;;;0.93;0.80;;;;;;;;;;5063030;27;86989;-55
2022/12/14 08:23:30;;;;;;;1.53;1.13;;;;;;;;;;5062606;27;87174;-56
2022/12/14 08:25:59;;;;;;;1.17;0.90;;;;;;;;;;5063121;27;88958;-55
2022/12/14 08:28:28;;;;;;;1.30;1.10;;;;;;;;;;5063083;27;87250;-55
2022/12/14 08:30:57;;;;;;;1.57;1.03;;;;;;;;;;5064021;27;86904;-55
2022/12/14 08:33:26;;;;;;;1.87;1.20;;;;;;;;;;5063234;27;87051;-55
2022/12/14 08:35:55;;;;;;;1.50;1.40;;;;;;;;;;5063031;27;89043;-56
2022/12/14 08:38:23;;;;;;;2.07;1.70;;;;;;;;;;5062880;27;87755;-55
2022/12/14 08:40:51;;;;;;;1.20;1.03;;;;;;;;;;5063532;27;87109;-54
2022/12/14 08:43:20;;;;;;;1.10;1.00;;;;;;;;;;5063749;27;86155;-55
2022/12/14 08:45:52;;;;;;;2.50;1.27;;;;;;;;;;5063291;27;89159;-56
2022/12/14 08:48:22;;;;;;;1.23;1.13;;;;;;;;;;5063339;27;89159;-55
2022/12/14 08:50:50;;;;;;;6.50;1.27;;;;;;;;;;5062070;27;88074;-56
2022/12/14 08:53:18;;;;;;;2.07;1.23;;;;;;;;;;5061770;27;88127;-55
2022/12/14 08:55:47;;;;;;;1.20;1.10;;;;;;;;;;5062209;27;89011;-56
2022/12/14 08:58:15;;;;;;;2.67;1.10;;;;;;;;;;5062230;27;88728;-55
2022/12/14 09:00:43;;;;;;;2.30;1.57;;;;;;;;;;5063110;27;86872;-56
2022/12/14 09:03:12;;;;;;;2.03;1.30;;;;;;;;;;5063233;27;87072;-55
2022/12/14 09:05:42;;;;;;;2.00;1.63;;;;;;;;;;5062824;27;89237;-55
2022/12/14 09:08:10;;;;;;;1.90;1.03;;;;;;;;;;5063022;27;88883;-56
2022/12/14 09:10:38;;;;;;;0.87;0.87;;;;;;;;;;5061645;27;87005;-56
2022/12/14 09:13:07;;;;;;;1.63;0.87;;;;;;;;;;5062951;27;87076;-55
2022/12/14 09:15:35;;;;;;;1.97;0.80;;;;;;;;;;5062482;27;91787;-55
2022/12/14 09:18:04;;;;;;;1.40;0.90;;;;;;;;;;5062631;27;88797;-55
2022/12/14 09:20:32;;;;;;;1.27;1.03;;;;;;;;;;5063036;27;87208;-55
2022/12/14 09:23:02;;;;;;;2.20;1.20;;;;;;;;;;5062886;27;87618;-55
2022/12/14 09:25:30;;;;;;;1.30;1.00;;;;;;;;;;5061565;27;87060;-55
2022/12/14 09:27:58;;;;;;;1.50;0.90;;;;;;;;;;5062063;27;88851;-55
2022/12/14 09:30:27;;;;;;;1.93;0.97;;;;;;;;;;5062518;27;87099;-56
2022/12/14 09:32:55;;;;;;;1.47;1.10;;;;;;;;;;5063003;27;86502;-55
2022/12/14 09:35:24;;;;;;;1.73;1.30;;;;;;;;;;5061875;27;87976;-55
2022/12/14 09:37:52;;;;;;;1.27;1.00;;;;;;;;;;5062472;27;88930;-55
2022/12/14 09:40:22;;;;;;;1.47;1.00;;;;;;;;;;5061998;27;87928;-55
2022/12/14 09:42:53;;;;;;;1.30;1.20;;;;;;;;;;5062165;27;87041;-55
2022/12/14 09:45:22;;;;;;;1.20;1.10;;;;;;;;;;5062232;27;89186;-55
2022/12/14 09:47:52;;;;;;;2.13;1.27;;;;;;;;;;5061837;27;87699;-55
2022/12/14 09:50:21;;;;;;;1.37;0.90;;;;;;;;;;5062172;27;87153;-55
2022/12/14 09:52:50;;;;;;;1.20;1.10;;;;;;;;;;5061222;27;87373;-55
2022/12/14 09:55:19;;;;;;;2.27;1.23;;;;;;;;;;5061446;27;88140;-55
2022/12/14 09:57:50;;;;;;;1.20;1.07;;;;;;;;;;5061723;27;89076;-56
2022/12/14 10:00:19;;;;;;;1.07;0.80;;;;;;;;;;5061839;27;87063;-55
2022/12/14 10:02:51;;;;;;;1.70;1.00;;;;;;;;;;5062037;27;87707;-55
2022/12/14 10:05:25;;;;;;;2.63;1.40;;;;;;;;;;5061324;27;90303;-55
2022/12/14 10:07:58;;;;;;;1.37;1.10;;;;;;;;;;5061835;27;89851;-55
2022/12/14 10:10:28;;;;;;;1.17;0.93;;;;;;;;;;5062258;27;87099;-53
2022/12/14 10:13:00;;;;;;;1.73;1.13;;;;;;;;;;5061793;27;87678;-53
2022/12/14 10:15:29;;;;;;;2.30;1.37;;;;;;;;;;5061470;27;88702;-54
2022/12/14 10:18:10;;;;;;;1.73;0.90;;;;;;;;;;5061627;27;89095;-54
2022/12/14 10:21:00;;;;;;;1.03;0.93;;;;;;;;;;5061842;27;87679;-54
2022/12/14 10:23:28;;;;;;;1.63;0.93;;;;;;;;;;5062167;27;86464;-54
2022/12/14 10:25:57;;;;;;;1.10;1.00;;;;;;;;;;5061642;27;89296;-53
2022/12/14 10:28:29;;;;;;;1.73;1.33;;;;;;;;;;5061267;27;89046;-53
2022/12/14 10:30:58;;;;;;;1.10;1.00;;;;;;;;;;5061015;27;88086;-55
2022/12/14 10:33:28;;;;;;;1.50;0.87;;;;;;;;;;5061125;27;87070;-53
2022/12/14 10:35:57;;;;;;;1.60;0.83;;;;;;;;;;5061152;27;89334;-53
2022/12/14 10:38:26;;;;;;;2.13;1.30;;;;;;;;;;5061403;27;88895;-53
2022/12/14 10:40:56;;;;;;;2.53;1.47;;;;;;;;;;5061489;27;87019;-53
2022/12/14 10:43:29;;;;;;;1.63;1.17;;;;;;;;;;5061286;27;87106;-53
2022/12/14 10:46:00;;;;;;;1.67;1.20;;;;;;;;;;5060517;27;89183;-53
2022/12/14 10:48:36;;;;;;;2.17;1.10;;;;;;;;;;5061416;27;88697;-56
2022/12/14 10:51:06;;;;;;;1.23;1.10;;;;;;;;;;5061169;27;86925;-55
2022/12/14 10:53:37;;;;;;;0.70;0.70;;;;;;;;;;5060649;27;87010;-56
2022/12/14 10:56:10;;;;;;;1.37;1.20;;;;;;;;;;5060174;27;88982;-55
2022/12/14 10:58:40;;;;;;;1.23;1.00;;;;;;;;;;5061531;27;88690;-53
2022/12/14 11:01:09;;;;;;;2.73;0.80;;;;;;;;;;5060890;27;87062;-56
2022/12/14 11:03:38;;;;;;;1.83;1.10;;;;;;;;;;5061414;27;87597;-55
2022/12/14 11:06:10;;;;;;;5.97;1.00;;;;;;;;;;5061077;27;88715;-53
2022/12/14 11:08:39;;;;;;;2.30;1.33;;;;;;;;;;5060947;27;87952;-53
2022/12/14 11:11:08;;;;;;;1.27;0.93;;;;;;;;;;5060848;27;87531;-55
2022/12/14 11:13:52;;;;;;;1.73;1.20;;;;;;;;;;5060906;27;86382;-55
2022/12/14 11:16:28;;;;;;;2.80;1.30;;;;;;;;;;5060876;27;89314;-56
2022/12/14 11:19:04;;;;;;;0.70;0.63;;;;;;;;;;5061464;27;89010;-54
2022/12/14 11:21:33;;;;;;;1.40;1.30;;;;;;;;;;5060281;27;88052;-54
2022/12/14 11:24:02;;;;;;;3.00;1.37;;;;;;;;;;5060769;27;86990;-54
2022/12/14 11:26:32;;;;;;;2.17;1.00;;;;;;;;;;5060230;27;88895;-55
2022/12/14 11:29:02;;;;;;;1.37;1.10;;;;;;;;;;5060485;27;88803;-55
2022/12/14 11:31:33;;;;;;;1.73;0.90;;;;;;;;;;5060323;27;87076;-55
2022/12/14 11:34:02;;;;;;;1.60;1.40;;;;;;;;;;5061212;27;87012;-55
2022/12/14 11:36:31;;;;;;;1.63;1.03;;;;;;;;;;5063917;27;89199;-55
2022/12/14 11:39:00;;;;;;;1.10;1.00;;;;;;;;;;5064639;27;88949;-54
2022/12/14 11:41:29;;;;;;;1.87;1.50;;;;;;;;;;5064381;27;87084;-55
2022/12/14 11:44:05;;;;;;;2.57;1.10;;;;;;;;;;5064026;27;87126;-55
2022/12/14 11:46:44;;;;;;;2.50;0.90;;;;;;;;;;5063967;27;89939;-55
2022/12/14 11:49:24;;;;;;;1.67;1.07;;;;;;;;;;5063599;27;89953;-55
2022/12/14 11:51:59;;;;;;;4.80;1.90;;;;;;;;;;5063625;27;87046;-55
2022/12/14 11:54:27;;;;;;;1.37;0.97;;;;;;;;;;5063775;27;87045;-55
2022/12/14 11:56:57;;;;;;;0.97;0.83;;;;;;;;;;5063348;27;89559;-55
2022/12/14 11:59:28;;;;;;;1.37;1.17;;;;;;;;;;5063115;27;88869;-55
2022/12/14 12:01:56;;;;;;;1.93;1.20;;;;;;;;;;5064031;27;87002;-56
2022/12/14 12:04:25;;;;;;;4.13;1.10;;;;;;;;;;5064501;27;86247;-55
2022/12/14 12:06:53;;;;;;;2.83;1.30;;;;;;;;;;5063978;27;88895;-54
2022/12/14 12:09:26;;;;;;;1.73;1.27;;;;;;;;;;5063593;27;87724;-55
2022/12/14 12:11:54;;;;;;;1.53;1.17;;;;;;;;;;5063086;27;88008;-55
2022/12/14 12:14:24;;;;;;;2.90;1.00;;;;;;;;;;5063455;27;87078;-55
2022/12/14 12:16:54;;;;;;;2.63;1.33;;;;;;;;;;5063422;27;89278;-55
2022/12/14 12:19:23;;;;;;;1.67;1.13;;;;;;;;;;5063241;27;88898;-55
2022/12/14 12:21:52;;;;;;;2.93;1.67;;;;;;;;;;5062771;27;86958;-55
2022/12/14 12:24:21;;;;;;;1.17;0.90;;;;;;;;;;5063171;27;86936;-56
2022/12/14 12:26:50;;;;;;;0.93;0.80;;;;;;;;;;5063155;27;88177;-56
2022/12/14 12:29:21;;;;;;;1.30;1.17;;;;;;;;;;5063838;27;88495;-56
2022/12/14 12:31:51;;;;;;;1.23;1.03;;;;;;;;;;5063340;27;87309;-55
2022/12/14 12:34:21;;;;;;;1.03;0.90;;;;;;;;;;5063424;27;87093;-55
2022/12/14 12:36:51;;;;;;;0.90;0.90;;;;;;;;;;5062243;27;89008;-55
2022/12/14 12:39:39;;;;;;;1.00;0.90;;;;;;;;;;5063460;27;91609;-55
2022/12/14 12:42:10;;;;;;;1.53;1.30;;;;;;;;;;5062925;27;86908;-55
2022/12/14 12:44:41;;;;;;;1.13;1.03;;;;;;;;;;5062682;27;87032;-55
2022/12/14 12:47:17;;;;;;;0.70;0.70;;;;;;;;;;5061558;27;89158;-55
2022/12/14 12:50:13;;;;;;;1.40;1.20;;;;;;;;;;5062480;27;87483;-56
2022/12/14 12:52:46;;;;;;;2.20;1.40;;;;;;;;;;5062692;27;87066;-55
2022/12/14 12:55:15;;;;;;;1.23;1.10;;;;;;;;;;5063299;27;86314;-55
2022/12/14 12:57:45;;;;;;;1.00;0.80;;;;;;;;;;5062663;27;89142;-55
2022/12/14 13:00:16;;;;;;;0.97;0.80;;;;;;;;;;5063190;27;87873;-55
2022/12/14 13:02:45;;;;;;;2.30;1.40;;;;;;;;;;5062132;27;88041;-55
2022/12/14 13:05:19;;;;;;;1.30;1.20;;;;;;;;;;5062403;27;88099;-55
2022/12/14 13:08:09;;;;;;;0.73;0.63;;;;;;;;;;5062180;27;86966;-55
2022/12/14 13:10:38;;;;;;;1.13;1.03;;;;;;;;;;5062532;27;87836;-55
2022/12/14 13:13:27;;;;;;;1.03;1.00;;;;;;;;;;5063043;27;86935;-55
2022/12/14 13:15:56;;;;;;;2.13;1.10;;;;;;;;;;5062421;27;87758;-55
2022/12/14 13:18:25;;;;;;;2.53;1.10;;;;;;;;;;5062294;27;89036;-54
2022/12/14 13:21:17;;;;;;;1.47;1.13;;;;;;;;;;5062261;27;90180;-55
2022/12/14 13:23:45;;;;;;;1.70;0.80;;;;;;;;;;5062706;27;87053;-55
2022/12/14 13:26:18;;;;;;;1.43;1.00;;;;;;;;;;5062859;27;87031;-55
2022/12/14 13:29:08;;;;;;;0.97;0.90;;;;;;;;;;5061293;27;88414;-55
2022/12/14 13:31:37;;;;;;;1.70;1.13;;;;;;;;;;5062203;27;88729;-55
2022/12/14 13:34:12;;;;;;;1.13;1.03;;;;;;;;;;5062585;27;87033;-55
2022/12/14 13:36:59;;;;;;;0.50;0.50;;;;;;;;;;5061774;27;86998;-56
2022/12/14 13:39:44;;;;;;;1.37;1.03;;;;;;;;;;5061872;27;89340;-55
2022/12/14 13:42:19;;;;;;;1.37;1.20;;;;;;;;;;5062045;27;87611;-56
2022/12/14 13:44:55;;;;;;;1.43;1.00;;;;;;;;;;5062385;27;86891;-55
2022/12/14 13:47:26;;;;;;;0.97;0.80;;;;;;;;;;5062496;27;86232;-55
2022/12/14 13:49:55;;;;;;;1.03;0.93;;;;;;;;;;5061675;27;88246;-55
2022/12/14 13:52:43;;;;;;;1.10;0.90;;;;;;;;;;5061802;27;87426;-54
2022/12/14 13:55:26;;;;;;;2.30;1.20;;;;;;;;;;5062038;27;87933;-55
2022/12/14 13:57:54;;;;;;;1.00;0.90;;;;;;;;;;5061437;27;87065;-55
2022/12/14 14:00:41;;;;;;;0.97;0.93;;;;;;;;;;5061691;27;89027;-55
2022/12/14 14:03:10;;;;;;;1.53;1.10;;;;;;;;;;5061701;27;87948;-55
2022/12/14 14:05:44;;;;;;;1.10;0.73;;;;;;;;;;5061936;27;88108;-56
2022/12/14 14:08:28;;;;;;;1.13;1.03;;;;;;;;;;5061924;27;87594;-55
2022/12/14 14:11:20;;;;;;;1.40;1.20;;;;;;;;;;5061800;27;87892;-55
2022/12/14 14:14:08;;;;;;;1.00;0.90;;;;;;;;;;5061925;27;88886;-55
2022/12/14 14:16:38;;;;;;;1.53;1.10;;;;;;;;;;5061908;27;87082;-55
2022/12/14 14:19:18;;;;;;;1.73;0.97;;;;;;;;;;5061542;27;87040;-55
2022/12/14 14:22:00;;;;;;;0.80;0.80;;;;;;;;;;5060666;27;90065;-55
2022/12/14 14:24:56;;;;;;;0.70;0.70;;;;;;;;;;5060919;27;88384;-55
2022/12/14 14:27:26;;;;;;;1.17;1.07;;;;;;;;;;5061574;27;87159;-55
2022/12/14 14:29:55;;;;;;;0.87;0.70;;;;;;;;;;5061579;27;88028;-56
2022/12/14 14:32:27;;;;;;;1.70;0.90;;;;;;;;;;5061690;27;89128;-55
2022/12/14 14:34:55;;;;;;;0.90;0.90;;;;;;;;;;5061389;27;87903;-55
2022/12/14 14:37:28;;;;;;;0.90;0.80;;;;;;;;;;5061224;27;87212;-55
2022/12/14 14:39:59;;;;;;;1.40;1.00;;;;;;;;;;5061188;27;86251;-54
2022/12/14 14:42:46;;;;;;;0.80;0.77;;;;;;;;;;5061478;27;88805;-55
2022/12/14 14:45:26;;;;;;;1.10;0.80;;;;;;;;;;5061094;27;88949;-54
2022/12/14 14:47:55;;;;;;;2.50;1.30;;;;;;;;;;5060769;27;88013;-55
2022/12/14 14:50:24;;;;;;;1.73;1.07;;;;;;;;;;5061026;27;86917;-55
2022/12/14 14:53:11;;;;;;;1.37;1.20;;;;;;;;;;5060808;27;89131;-55
2022/12/14 14:56:00;;;;;;;1.80;1.00;;;;;;;;;;5061125;27;88823;-55
2022/12/14 14:58:30;;;;;;;0.80;0.80;;;;;;;;;;5061139;27;86961;-54
2022/12/14 15:01:02;;;;;;;1.23;0.90;;;;;;;;;;5061319;27;87014;-56
2022/12/14 15:03:35;;;;;;;1.43;1.03;;;;;;;;;;5060883;27;88007;-55
2022/12/14 15:06:04;;;;;;;1.77;0.90;;;;;;;;;;5061442;27;88446;-55
2022/12/14 15:08:33;;;;;;;0.93;0.90;;;;;;;;;;5060156;27;87026;-55
2022/12/14 15:11:03;;;;;;;1.37;1.20;;;;;;;;;;5061152;27;86903;-55
2022/12/14 15:13:34;;;;;;;1.47;1.37;;;;;;;;;;5060836;27;92392;-55
2022/12/14 15:16:03;;;;;;;1.07;0.70;;;;;;;;;;5060461;27;89769;-54
2022/12/14 15:18:32;;;;;;;1.10;1.00;;;;;;;;;;5060601;27;87094;-55
2022/12/14 15:21:01;;;;;;;1.43;1.10;;;;;;;;;;5060319;27;87028;-55